createdAt,value
2023-05-07T00:01:27.564Z,16.88
2023-05-07T00:03:57.444Z,15.68
2023-05-07T00:06:27.513Z,16.70
2023-05-07T00:08:55.635Z,18.05
2023-05-07T00:11:27.787Z,18.77
2023-05-07T00:13:56.087Z,15.27
2023-05-07T00:16:25.291Z,15.63
2023-05-07T00:18:55.076Z,16.45
2023-05-07T00:21:27.478Z,15.68
2023-05-07T00:23:56.097Z,15.80
2023-05-07T00:26:24.395Z,15.93
2023-05-07T00:28:53.368Z,15.68
2023-05-07T00:31:21.735Z,15.02
2023-05-07T00:33:49.975Z,15.43
2023-05-07T00:36:31.913Z,20.45
2023-05-07T00:39:04.611Z,19.77
2023-05-07T00:41:32.741Z,17.77
2023-05-07T00:44:01.665Z,15.18
2023-05-07T00:46:31.477Z,15.27
2023-05-07T00:49:18.635Z,16.17
2023-05-07T00:51:47.358Z,16.10
2023-05-07T00:54:17.139Z,15.05
2023-05-07T00:56:45.910Z,16.23
2023-05-07T00:59:14.037Z,16.80
2023-05-07T01:01:42.827Z,14.95
2023-05-07T01:04:11.005Z,16.02
2023-05-07T01:06:40.214Z,15.20
2023-05-07T01:09:10.412Z,17.73
2023-05-07T01:11:40.212Z,17.10
2023-05-07T01:14:09.394Z,16.05
2023-05-07T01:16:38.119Z,20.55
2023-05-07T01:19:07.074Z,16.73
2023-05-07T01:21:36.114Z,17.05
2023-05-07T01:24:08.350Z,16.35
2023-05-07T01:26:36.771Z,16.92
2023-05-07T01:29:04.815Z,16.88
2023-05-07T01:31:34.189Z,20.58
2023-05-07T01:34:04.115Z,20.42
2023-05-07T01:36:33.198Z,15.60
2023-05-07T01:39:01.712Z,18.15
2023-05-07T01:41:31.383Z,15.70
2023-05-07T01:44:01.193Z,17.58
2023-05-07T01:46:29.744Z,16.52
2023-05-07T01:48:57.830Z,16.20
2023-05-07T01:51:26.377Z,20.38
2023-05-07T01:53:55.151Z,17.20
2023-05-07T01:56:23.494Z,17.50
2023-05-07T01:58:53.922Z,14.88
2023-05-07T02:01:22.408Z,16.40
2023-05-07T02:03:51.455Z,16.98
2023-05-07T02:06:25.186Z,17.13
2023-05-07T02:08:57.940Z,14.85
2023-05-07T02:11:26.328Z,18.77
2023-05-07T02:13:55.764Z,15.02
2023-05-07T02:16:24.996Z,16.90
2023-05-07T02:18:54.005Z,15.90
2023-05-07T02:21:22.461Z,15.27
2023-05-07T02:23:50.637Z,17.90
2023-05-07T02:26:19.137Z,18.05
2023-05-07T02:28:47.594Z,18.60
2023-05-07T02:31:17.575Z,17.27
2023-05-07T02:33:46.630Z,17.77
2023-05-07T02:36:15.837Z,18.08
2023-05-07T02:38:53.368Z,18.00
2023-05-07T02:41:22.187Z,16.65
2023-05-07T02:43:50.338Z,16.98
2023-05-07T02:46:20.610Z,18.83
2023-05-07T02:48:54.300Z,18.88
2023-05-07T02:51:26.048Z,18.27
2023-05-07T02:53:56.537Z,18.88
2023-05-07T02:56:25.292Z,17.83
2023-05-07T02:58:53.372Z,17.25
2023-05-07T03:01:24.964Z,18.73
2023-05-07T03:04:01.998Z,22.58
2023-05-07T03:06:30.291Z,18.10
2023-05-07T03:08:58.427Z,17.88
2023-05-07T03:11:27.254Z,16.23
2023-05-07T03:13:55.603Z,17.33
2023-05-07T03:16:25.791Z,16.33
2023-05-07T03:18:54.473Z,17.92
2023-05-07T03:21:23.181Z,18.50
2023-05-07T03:23:51.332Z,14.77
2023-05-07T03:26:19.709Z,16.83
2023-05-07T03:28:48.243Z,17.88
2023-05-07T03:31:18.880Z,19.02
2023-05-07T03:33:56.984Z,17.02
2023-05-07T03:36:27.675Z,18.65
2023-05-07T03:38:57.238Z,18.27
2023-05-07T03:41:28.277Z,16.73
2023-05-07T03:43:56.537Z,17.40
2023-05-07T03:46:27.540Z,16.95
2023-05-07T03:48:57.700Z,17.13
2023-05-07T03:51:26.364Z,16.33
2023-05-07T03:53:54.895Z,17.58
2023-05-07T03:56:27.388Z,16.35
2023-05-07T03:58:56.743Z,15.70
2023-05-07T04:01:24.868Z,16.60
2023-05-07T04:03:53.185Z,14.10
2023-05-07T04:06:23.395Z,14.02
2023-05-07T04:08:51.776Z,16.48
2023-05-07T04:11:19.850Z,14.73
2023-05-07T04:13:48.347Z,13.43
2023-05-07T04:16:19.240Z,13.55
2023-05-07T04:18:47.432Z,13.80
2023-05-07T04:21:19.532Z,13.45
2023-05-07T04:23:50.587Z,14.15
2023-05-07T04:26:18.667Z,14.40
2023-05-07T04:28:47.730Z,16.17
2023-05-07T04:31:18.187Z,15.48
2023-05-07T04:33:50.323Z,18.30
2023-05-07T04:36:18.875Z,14.93
2023-05-07T04:38:56.405Z,15.70
2023-05-07T04:41:24.548Z,12.77
2023-05-07T04:43:52.699Z,13.65
2023-05-07T04:46:24.991Z,12.98
2023-05-07T04:48:53.970Z,13.77
2023-05-07T04:51:22.041Z,12.75
2023-05-07T04:53:51.697Z,12.50
2023-05-07T04:56:21.319Z,13.10
2023-05-07T04:58:49.554Z,12.65
2023-05-07T05:01:21.206Z,11.48
2023-05-07T05:03:49.828Z,13.18
2023-05-07T05:06:19.398Z,12.00
2023-05-07T05:08:47.665Z,12.50
2023-05-07T05:11:15.905Z,18.15
2023-05-07T05:13:45.823Z,12.57
2023-05-07T05:16:19.030Z,13.10
2023-05-07T05:18:47.267Z,12.75
2023-05-07T05:21:18.101Z,11.38
2023-05-07T05:23:49.133Z,14.05
2023-05-07T05:26:22.172Z,14.85
2023-05-07T05:28:52.342Z,11.57
2023-05-07T05:31:23.181Z,12.15
2023-05-07T05:33:52.858Z,15.88
2023-05-07T05:36:20.953Z,10.23
2023-05-07T05:38:50.823Z,9.48
2023-05-07T05:41:19.639Z,9.68
2023-05-07T05:43:47.823Z,9.80
2023-05-07T05:46:17.501Z,8.98
2023-05-07T05:48:46.013Z,8.50
2023-05-07T05:51:14.134Z,10.32
2023-05-07T05:53:42.840Z,9.70
2023-05-07T05:56:11.356Z,8.43
2023-05-07T05:58:42.200Z,9.60
2023-05-07T06:01:12.585Z,9.05
2023-05-07T06:03:41.973Z,9.38
2023-05-07T06:06:16.402Z,9.52
2023-05-07T06:08:45.522Z,8.63
2023-05-07T06:11:17.512Z,7.65
2023-05-07T06:13:47.881Z,7.22
2023-05-07T06:16:16.756Z,8.80
2023-05-07T06:18:47.806Z,6.93
2023-05-07T06:21:17.719Z,7.15
2023-05-07T06:26:32.981Z,7.43
2023-05-07T06:29:01.071Z,7.45
2023-05-07T06:31:34.020Z,7.82
2023-05-07T06:34:07.189Z,7.45
2023-05-07T06:36:38.934Z,6.90
2023-05-07T06:39:15.499Z,7.10
2023-05-07T06:41:43.789Z,6.65
2023-05-07T06:44:22.955Z,7.30
2023-05-07T06:47:01.293Z,6.90
2023-05-07T06:49:30.908Z,6.60
2023-05-07T06:51:59.048Z,7.15
2023-05-07T06:54:27.340Z,6.93
2023-05-07T06:56:55.573Z,7.32
2023-05-07T06:59:26.301Z,6.55
2023-05-07T07:04:43.060Z,7.68
2023-05-07T07:07:12.704Z,6.10
2023-05-07T07:09:42.682Z,6.43
2023-05-07T07:12:11.762Z,6.03
2023-05-07T07:14:41.849Z,5.72
2023-05-07T07:17:10.284Z,6.00
2023-05-07T07:19:39.630Z,10.45
2023-05-07T07:22:09.055Z,9.38
2023-05-07T07:24:37.524Z,6.97
2023-05-07T07:27:08.346Z,8.88
2023-05-07T07:29:36.905Z,8.43
2023-05-07T07:32:05.829Z,7.28
2023-05-07T07:34:34.583Z,6.97
2023-05-07T07:37:06.544Z,6.93
2023-05-07T07:39:38.714Z,6.60
2023-05-07T07:42:08.302Z,6.00
2023-05-07T07:44:36.499Z,6.25
2023-05-07T07:47:09.118Z,6.32
2023-05-07T07:49:37.456Z,5.35
2023-05-07T07:52:07.947Z,6.45
2023-05-07T07:54:39.711Z,6.05
2023-05-07T07:57:09.278Z,5.47
2023-05-07T07:59:38.026Z,5.32
2023-05-07T08:02:07.626Z,7.93
2023-05-07T08:04:38.110Z,5.55
2023-05-07T08:07:08.552Z,7.07
2023-05-07T08:09:41.889Z,5.30
2023-05-07T08:12:11.144Z,6.25
2023-05-07T08:14:40.489Z,5.70
2023-05-07T08:17:10.739Z,5.10
2023-05-07T08:19:39.496Z,6.00
2023-05-07T08:22:10.188Z,4.88
2023-05-07T08:24:38.337Z,4.53
2023-05-07T08:27:08.090Z,6.68
2023-05-07T08:29:36.616Z,5.53
2023-05-07T08:32:05.037Z,4.95
2023-05-07T08:34:33.293Z,4.50
2023-05-07T08:37:04.599Z,5.07
2023-05-07T08:39:33.939Z,5.05
2023-05-07T08:42:05.626Z,5.20
2023-05-07T08:44:37.104Z,4.80
2023-05-07T08:47:08.181Z,5.93
2023-05-07T08:49:37.696Z,5.32
2023-05-07T08:52:09.730Z,4.65
2023-05-07T08:54:39.917Z,4.88
2023-05-07T08:57:10.918Z,8.57
2023-05-07T08:59:40.809Z,6.70
2023-05-07T09:02:11.580Z,4.78
2023-05-07T09:04:40.669Z,5.35
2023-05-07T09:07:09.531Z,5.28
2023-05-07T09:09:42.454Z,5.95
2023-05-07T09:12:10.815Z,5.32
2023-05-07T09:14:40.582Z,6.60
2023-05-07T09:17:08.848Z,5.65
2023-05-07T09:19:37.048Z,6.65
2023-05-07T09:22:09.132Z,7.45
2023-05-07T09:24:53.618Z,6.10
2023-05-07T09:27:25.357Z,6.15
2023-05-07T09:29:54.936Z,5.70
2023-05-07T09:32:23.043Z,7.30
2023-05-07T09:34:51.269Z,6.07
2023-05-07T09:37:23.996Z,6.97
2023-05-07T09:39:52.727Z,6.15
2023-05-07T09:42:26.480Z,5.78
2023-05-07T09:44:57.579Z,6.97
2023-05-07T09:47:34.393Z,8.13
2023-05-07T09:50:07.714Z,10.07
2023-05-07T09:52:36.637Z,6.25
2023-05-07T09:55:08.338Z,7.65
2023-05-07T09:57:38.063Z,5.20
2023-05-07T10:00:13.026Z,6.03
2023-05-07T10:02:52.928Z,5.30
2023-05-07T10:05:28.391Z,4.72
2023-05-07T10:07:59.607Z,7.95
2023-05-07T10:10:29.825Z,5.72
2023-05-07T10:12:58.055Z,6.75
2023-05-07T10:15:34.677Z,6.15
2023-05-07T10:18:05.601Z,7.55
2023-05-07T10:20:35.337Z,7.63
2023-05-07T10:23:07.195Z,7.32
2023-05-07T10:25:42.629Z,7.18
2023-05-07T10:28:21.669Z,5.80
2023-05-07T10:31:03.246Z,6.35
2023-05-07T10:33:39.586Z,5.60
2023-05-07T10:36:08.931Z,8.27
2023-05-07T10:38:37.140Z,7.15
2023-05-07T10:41:06.683Z,7.53
2023-05-07T10:43:43.778Z,6.18
2023-05-07T10:46:19.415Z,6.22
2023-05-07T10:49:11.905Z,5.20
2023-05-07T10:52:31.355Z,8.70
2023-05-07T10:55:23.318Z,6.93
2023-05-07T10:58:32.091Z,5.43
2023-05-07T11:01:12.212Z,6.18
2023-05-07T11:04:16.256Z,6.38
2023-05-07T11:07:30.276Z,5.60
2023-05-07T11:10:08.695Z,5.63
2023-05-07T11:12:57.451Z,7.80
2023-05-07T11:15:44.360Z,5.20
2023-05-07T11:18:24.835Z,5.45
2023-05-07T11:20:58.341Z,5.63
2023-05-07T11:24:01.918Z,5.15
2023-05-07T11:26:48.791Z,4.45
2023-05-07T11:29:21.778Z,6.47
2023-05-07T11:31:53.929Z,5.20
2023-05-07T11:34:25.149Z,5.13
2023-05-07T11:36:56.008Z,6.82
2023-05-07T11:39:36.895Z,4.68
2023-05-07T11:42:05.272Z,4.53
2023-05-07T11:44:47.288Z,4.40
2023-05-07T11:47:19.942Z,5.10
2023-05-07T11:49:49.753Z,6.20
2023-05-07T11:52:19.621Z,4.68
2023-05-07T11:54:51.474Z,4.38
2023-05-07T11:57:19.619Z,6.72
2023-05-07T11:59:48.544Z,5.32
2023-05-07T12:02:17.336Z,7.22
2023-05-07T12:04:46.084Z,5.15
2023-05-07T12:07:14.816Z,4.97
2023-05-07T12:09:44.856Z,7.25
2023-05-07T12:12:13.518Z,5.05
2023-05-07T12:14:42.597Z,5.22
2023-05-07T12:17:11.533Z,3.90
2023-05-07T12:19:42.048Z,4.70
2023-05-07T12:22:11.155Z,5.03
2023-05-07T12:24:48.399Z,4.25
2023-05-07T12:27:17.142Z,4.15
2023-05-07T12:29:47.261Z,5.03
2023-05-07T12:32:16.945Z,4.18
2023-05-07T12:34:45.720Z,4.43
2023-05-07T12:37:14.766Z,4.68
2023-05-07T12:39:50.408Z,7.13
2023-05-07T12:42:24.488Z,4.95
2023-05-07T12:44:53.486Z,5.18
2023-05-07T12:47:22.582Z,4.95
2023-05-07T12:49:51.081Z,5.72
2023-05-07T12:52:19.301Z,5.43
2023-05-07T12:54:50.332Z,3.25
2023-05-07T12:57:21.911Z,4.90
2023-05-07T12:59:49.925Z,3.85
2023-05-07T13:02:17.953Z,5.80
2023-05-07T13:04:46.470Z,5.57
2023-05-07T13:07:14.492Z,3.50
2023-05-07T13:09:43.290Z,5.90
2023-05-07T13:12:13.041Z,5.65
2023-05-07T13:14:41.108Z,3.67
2023-05-07T13:17:09.126Z,3.90
2023-05-07T13:19:38.477Z,3.10
2023-05-07T13:22:07.769Z,2.85
2023-05-07T13:24:36.054Z,4.47
2023-05-07T13:27:04.184Z,4.07
2023-05-07T13:29:52.672Z,4.93
2023-05-07T13:32:21.023Z,2.65
2023-05-07T13:34:49.357Z,14.23
2023-05-07T13:37:17.537Z,2.50
2023-05-07T13:39:45.633Z,3.13
2023-05-07T13:42:13.812Z,2.22
2023-05-07T13:44:41.933Z,3.17
2023-05-07T13:47:11.538Z,5.05
2023-05-07T13:49:39.720Z,2.47
2023-05-07T13:52:07.892Z,2.35
2023-05-07T13:54:35.877Z,3.03
2023-05-07T13:57:04.277Z,2.72
2023-05-07T13:59:32.302Z,2.22
2023-05-07T14:02:00.332Z,2.78
2023-05-07T14:04:30.040Z,2.20
2023-05-07T14:06:58.092Z,2.35
2023-05-07T14:09:26.210Z,2.63
2023-05-07T14:11:54.590Z,2.30
2023-05-07T14:14:22.613Z,2.58
2023-05-07T14:16:51.187Z,2.85
2023-05-07T14:19:19.864Z,5.90
2023-05-07T14:21:49.219Z,2.58
2023-05-07T14:24:24.415Z,3.10
2023-05-07T14:27:03.060Z,3.55
2023-05-07T14:29:31.134Z,4.80
2023-05-07T14:31:59.166Z,5.32
2023-05-07T14:34:27.341Z,4.78
2023-05-07T14:36:57.380Z,5.93
2023-05-07T14:39:26.422Z,6.03
2023-05-07T14:41:55.825Z,5.13
2023-05-07T14:44:23.927Z,4.65
2023-05-07T14:46:52.679Z,6.85
2023-05-07T14:49:21.054Z,5.25
2023-05-07T14:51:49.760Z,6.03
2023-05-07T14:54:19.305Z,4.50
2023-05-07T14:56:47.780Z,5.93
2023-05-07T14:59:16.940Z,8.13
2023-05-07T15:01:46.420Z,6.00
2023-05-07T15:04:15.047Z,3.92
2023-05-07T15:06:44.256Z,5.35
2023-05-07T15:09:12.240Z,7.60
2023-05-07T15:11:41.808Z,4.25
2023-05-07T15:14:09.851Z,5.75
2023-05-07T15:16:37.942Z,4.78
2023-05-07T15:19:06.328Z,5.40
2023-05-07T15:21:35.785Z,5.05
2023-05-07T15:24:03.887Z,4.70
2023-05-07T15:26:32.187Z,7.10
2023-05-07T15:29:04.152Z,5.13
2023-05-07T15:31:32.266Z,3.83
2023-05-07T15:34:01.978Z,4.43
2023-05-07T15:36:31.012Z,3.72
2023-05-07T15:38:59.150Z,3.38
2023-05-07T15:41:27.175Z,4.05
2023-05-07T15:43:55.574Z,4.43
2023-05-07T15:46:26.451Z,5.20
2023-05-07T15:48:56.766Z,3.90
2023-05-07T15:51:24.976Z,4.25
2023-05-07T15:53:53.862Z,4.95
2023-05-07T15:56:22.042Z,4.75
2023-05-07T15:58:50.395Z,6.13
2023-05-07T16:01:18.495Z,3.90
2023-05-07T16:03:48.168Z,3.55
2023-05-07T16:06:16.434Z,4.18
2023-05-07T16:08:44.935Z,5.85
2023-05-07T16:11:13.060Z,4.70
2023-05-07T16:13:41.119Z,3.97
2023-05-07T16:16:09.161Z,4.18
2023-05-07T16:18:37.342Z,4.00
2023-05-07T16:21:07.981Z,5.20
2023-05-07T16:23:36.371Z,4.18
2023-05-07T16:26:05.064Z,3.70
2023-05-07T16:28:33.177Z,4.72
2023-05-07T16:31:01.239Z,4.43
2023-05-07T16:33:29.450Z,4.43
2023-05-07T16:35:57.519Z,5.13
2023-05-07T16:38:26.982Z,4.90
2023-05-07T16:40:55.162Z,5.65
2023-05-07T16:43:23.330Z,7.72
2023-05-07T16:45:52.421Z,6.05
2023-05-07T16:48:21.248Z,4.32
2023-05-07T16:50:49.796Z,4.97
2023-05-07T16:53:17.838Z,4.13
2023-05-07T16:55:47.622Z,4.38
2023-05-07T16:58:16.333Z,4.18
2023-05-07T17:00:50.458Z,5.95
2023-05-07T17:03:19.908Z,4.13
2023-05-07T17:05:48.119Z,3.47
2023-05-07T17:08:16.626Z,3.80
2023-05-07T17:10:46.143Z,3.60
2023-05-07T17:13:15.623Z,4.15
2023-05-07T17:15:46.566Z,3.50
2023-05-07T17:18:14.830Z,8.50
2023-05-07T17:20:42.917Z,5.68
2023-05-07T17:23:10.992Z,4.40
2023-05-07T17:25:39.253Z,6.88
2023-05-07T17:28:07.306Z,3.83
2023-05-07T17:30:36.847Z,7.32
2023-05-07T17:33:19.496Z,7.18
2023-05-07T17:35:48.790Z,3.93
2023-05-07T17:38:16.819Z,3.92
2023-05-07T17:40:44.995Z,3.75
2023-05-07T17:43:13.059Z,5.28
2023-05-07T17:45:42.878Z,3.42
2023-05-07T17:48:11.005Z,5.18
2023-05-07T17:50:39.078Z,3.63
2023-05-07T17:53:09.664Z,5.15
2023-05-07T17:55:42.063Z,3.20
2023-05-07T17:58:10.350Z,5.20
2023-05-07T18:00:38.583Z,4.78
2023-05-07T18:03:08.416Z,3.20
2023-05-07T18:05:38.097Z,4.63
2023-05-07T18:08:07.298Z,5.45
2023-05-07T18:10:35.399Z,6.15
2023-05-07T18:13:03.436Z,4.07
2023-05-07T18:15:31.481Z,4.20
2023-05-07T18:18:00.165Z,3.80
2023-05-07T18:20:29.808Z,3.70
2023-05-07T18:22:58.075Z,5.78
2023-05-07T18:25:26.141Z,4.18
2023-05-07T18:27:54.261Z,7.32
2023-05-07T18:30:23.183Z,4.40
2023-05-07T18:32:51.536Z,4.00
2023-05-07T18:35:19.760Z,7.00
2023-05-07T18:37:49.381Z,5.32
2023-05-07T18:40:17.895Z,4.95
2023-05-07T18:42:45.909Z,4.35
2023-05-07T18:45:14.349Z,5.22
2023-05-07T18:47:42.416Z,6.47
2023-05-07T18:50:11.633Z,4.93
2023-05-07T18:52:40.255Z,3.90
2023-05-07T18:55:11.693Z,4.57
2023-05-07T18:57:39.702Z,5.18
2023-05-07T19:00:09.271Z,3.70
2023-05-07T19:02:37.534Z,4.22
2023-05-07T19:05:06.613Z,4.65
2023-05-07T19:07:35.014Z,4.93
2023-05-07T19:10:06.001Z,5.65
2023-05-07T19:12:36.098Z,5.18
2023-05-07T19:15:04.328Z,4.53
2023-05-07T19:17:32.403Z,4.63
2023-05-07T19:20:00.736Z,6.80
2023-05-07T19:22:28.925Z,5.93
2023-05-07T19:24:56.966Z,6.07
2023-05-07T19:27:25.136Z,6.00
2023-05-07T19:29:54.532Z,4.88
2023-05-07T19:32:22.606Z,4.95
2023-05-07T19:34:50.825Z,6.28
2023-05-07T19:37:22.832Z,4.20
2023-05-07T19:39:51.202Z,4.78
2023-05-07T19:42:19.414Z,4.65
2023-05-07T19:44:47.695Z,6.30
2023-05-07T19:47:17.644Z,4.72
2023-05-07T19:49:45.779Z,5.43
2023-05-07T19:52:13.841Z,4.82
2023-05-07T19:54:41.867Z,4.90
2023-05-07T19:57:10.480Z,7.70
2023-05-07T19:59:38.626Z,5.55
2023-05-07T20:02:07.135Z,5.38
2023-05-07T20:04:38.221Z,5.90
2023-05-07T20:07:06.539Z,5.28
2023-05-07T20:09:34.762Z,6.38
2023-05-07T20:12:02.924Z,5.95
2023-05-07T20:14:32.044Z,6.03
2023-05-07T20:17:00.230Z,5.75
2023-05-07T20:19:48.380Z,7.35
2023-05-07T20:22:16.624Z,6.63
2023-05-07T20:24:44.689Z,6.18
2023-05-07T20:27:13.281Z,5.63
2023-05-07T20:29:41.346Z,6.88
2023-05-07T20:32:09.496Z,5.40
2023-05-07T20:34:38.131Z,6.40
2023-05-07T20:37:11.740Z,6.32
2023-05-07T20:39:40.166Z,5.72
2023-05-07T20:42:08.201Z,5.93
2023-05-07T20:44:37.152Z,6.15
2023-05-07T20:47:05.393Z,6.60
2023-05-07T20:49:33.431Z,6.78
2023-05-07T20:52:01.992Z,5.97
2023-05-07T20:54:31.812Z,6.25
2023-05-07T20:57:00.456Z,6.15
2023-05-07T20:59:28.623Z,6.55
2023-05-07T21:01:56.751Z,6.88
2023-05-07T21:04:24.894Z,5.55
2023-05-07T21:06:53.301Z,6.55
2023-05-07T21:09:21.389Z,5.22
2023-05-07T21:11:50.902Z,5.78
2023-05-07T21:14:19.213Z,5.15
2023-05-07T21:16:48.097Z,5.68
2023-05-07T21:19:16.268Z,7.75
2023-05-07T21:21:44.538Z,5.20
2023-05-07T21:24:13.429Z,5.55
2023-05-07T21:26:41.861Z,7.40
2023-05-07T21:29:11.605Z,6.65
2023-05-07T21:31:39.646Z,6.32
2023-05-07T21:34:08.541Z,8.30
2023-05-07T21:36:36.861Z,7.75
2023-05-07T21:39:05.114Z,6.03
2023-05-07T21:41:33.162Z,5.57
2023-05-07T21:44:01.444Z,5.40
2023-05-07T21:46:30.999Z,5.10
2023-05-07T21:48:59.067Z,5.07
2023-05-07T21:51:27.191Z,6.85
2023-05-07T21:53:55.928Z,5.28
2023-05-07T21:56:24.374Z,6.80
2023-05-07T21:58:52.444Z,5.70
2023-05-07T22:01:20.524Z,5.43
2023-05-07T22:03:50.068Z,6.18
2023-05-07T22:06:21.973Z,6.25
2023-05-07T22:08:50.194Z,5.65
2023-05-07T22:11:18.278Z,5.68
2023-05-07T22:13:46.405Z,7.60
2023-05-07T22:16:14.640Z,6.22
2023-05-07T22:18:43.718Z,6.10
2023-05-07T22:21:13.149Z,6.75
2023-05-07T22:23:41.425Z,6.90
2023-05-07T22:26:13.195Z,9.90
2023-05-07T22:28:42.173Z,5.93
2023-05-07T22:31:10.398Z,7.93
2023-05-07T22:33:38.455Z,9.65
2023-05-07T22:36:08.018Z,5.93
2023-05-07T22:38:37.456Z,6.78
2023-05-07T22:41:05.535Z,7.93
2023-05-07T22:43:33.727Z,4.95
2023-05-07T22:46:02.539Z,5.50
2023-05-07T22:48:30.916Z,5.70
2023-05-07T22:50:59.425Z,5.57
2023-05-07T22:53:27.477Z,5.85
2023-05-07T22:55:57.164Z,6.00
2023-05-07T22:58:25.561Z,6.00
2023-05-07T23:00:53.717Z,7.43
2023-05-07T23:03:21.856Z,5.80
2023-05-07T23:05:50.527Z,10.73
2023-05-07T23:08:18.539Z,5.65
2023-05-07T23:10:47.074Z,6.93
2023-05-07T23:13:18.237Z,6.15
2023-05-07T23:15:46.257Z,10.35
2023-05-07T23:18:14.445Z,6.07
2023-05-07T23:20:48.398Z,5.65
2023-05-07T23:23:43.647Z,5.97
2023-05-07T23:26:11.773Z,5.72
2023-05-07T23:28:41.206Z,5.63
2023-05-07T23:31:09.386Z,5.85
2023-05-07T23:33:37.656Z,5.80
2023-05-07T23:36:07.361Z,5.82
2023-05-07T23:38:36.006Z,5.93
2023-05-07T23:41:04.060Z,5.53
2023-05-07T23:43:32.192Z,5.72
2023-05-07T23:46:02.535Z,9.82
2023-05-07T23:48:30.627Z,6.25
2023-05-07T23:50:58.627Z,6.90
2023-05-07T23:53:27.087Z,7.00
2023-05-07T23:55:55.099Z,7.25
2023-05-07T23:58:23.356Z,5.85
